createdAt,value
2023-10-18T00:01:56.233Z,18.33
2023-10-18T00:04:25.075Z,22.25
2023-10-18T00:06:55.511Z,19.85
2023-10-18T00:09:41.399Z,19.70
2023-10-18T00:12:08.400Z,23.73
2023-10-18T00:14:36.383Z,21.55
2023-10-18T00:17:02.913Z,22.55
2023-10-18T00:19:29.618Z,20.10
2023-10-18T00:21:56.319Z,22.98
2023-10-18T00:24:22.812Z,22.27
2023-10-18T00:26:49.267Z,26.60
2023-10-18T00:29:15.706Z,21.08
2023-10-18T00:31:42.252Z,25.10
2023-10-18T00:34:09.248Z,25.67
2023-10-18T00:36:35.835Z,23.50
2023-10-18T00:39:15.721Z,25.05
2023-10-18T00:41:45.508Z,21.85
2023-10-18T00:44:13.258Z,24.17
2023-10-18T00:46:40.742Z,24.17
2023-10-18T00:49:15.522Z,25.47
2023-10-18T00:51:44.842Z,26.40
2023-10-18T00:54:15.636Z,24.42
2023-10-18T00:56:47.012Z,24.70
2023-10-18T00:59:22.652Z,27.10
2023-10-18T01:02:01.436Z,25.60
2023-10-18T01:04:30.307Z,25.33
2023-10-18T01:06:59.268Z,23.45
2023-10-18T01:09:27.551Z,25.77
2023-10-18T01:11:54.365Z,27.50
2023-10-18T01:14:25.710Z,25.93
2023-10-18T01:16:54.859Z,25.05
2023-10-18T01:19:22.693Z,26.75
2023-10-18T01:21:52.733Z,26.65
2023-10-18T01:24:20.007Z,25.88
2023-10-18T01:26:46.628Z,25.83
2023-10-18T01:29:13.083Z,26.73
2023-10-18T01:31:50.261Z,28.15
2023-10-18T01:34:17.893Z,28.40
2023-10-18T01:36:44.428Z,24.60
2023-10-18T01:39:20.289Z,27.53
2023-10-18T01:41:56.684Z,25.77
2023-10-18T01:44:31.657Z,23.67
2023-10-18T01:47:08.835Z,23.67
2023-10-18T01:49:45.350Z,27.42
2023-10-18T01:52:13.571Z,25.50
2023-10-18T01:54:40.480Z,25.77
2023-10-18T01:57:13.097Z,26.80
2023-10-18T01:59:40.827Z,24.98
2023-10-18T02:02:11.405Z,23.73
2023-10-18T02:04:51.945Z,24.73
2023-10-18T02:07:20.531Z,24.05
2023-10-18T02:09:51.381Z,24.42
2023-10-18T02:12:21.226Z,24.20
2023-10-18T02:14:49.455Z,23.42
2023-10-18T02:17:19.454Z,22.27
2023-10-18T02:19:46.261Z,23.70
2023-10-18T02:22:17.398Z,23.77
2023-10-18T02:24:44.841Z,22.10
2023-10-18T02:27:17.084Z,23.52
2023-10-18T02:29:45.410Z,23.73
2023-10-18T02:32:32.253Z,21.95
2023-10-18T02:34:59.164Z,23.42
2023-10-18T02:37:26.171Z,26.55
2023-10-18T02:40:04.319Z,24.63
2023-10-18T02:42:34.070Z,27.13
2023-10-18T02:45:01.593Z,23.35
2023-10-18T02:47:31.014Z,23.98
2023-10-18T02:49:57.824Z,23.55
2023-10-18T02:52:27.812Z,23.35
2023-10-18T02:54:55.448Z,23.73
2023-10-18T02:57:22.079Z,25.38
2023-10-18T02:59:51.410Z,23.88
2023-10-18T03:02:23.609Z,23.42
2023-10-18T03:04:54.155Z,24.85
2023-10-18T03:07:22.981Z,28.00
2023-10-18T03:09:50.894Z,24.98
2023-10-18T03:12:19.145Z,27.40
2023-10-18T03:14:55.810Z,23.70
2023-10-18T03:17:24.735Z,26.92
2023-10-18T03:19:55.368Z,25.53
2023-10-18T03:22:27.674Z,26.27
2023-10-18T03:24:57.523Z,29.52
2023-10-18T03:27:26.677Z,24.30
2023-10-18T03:30:11.866Z,27.35
2023-10-18T03:32:39.388Z,23.67
2023-10-18T03:35:10.542Z,28.25
2023-10-18T03:37:40.320Z,28.05
2023-10-18T03:40:27.873Z,27.42
2023-10-18T03:42:55.380Z,28.98
2023-10-18T03:45:44.834Z,28.90
2023-10-18T03:48:24.583Z,28.15
2023-10-18T03:50:53.208Z,28.92
2023-10-18T03:53:21.128Z,29.45
2023-10-18T03:55:50.930Z,24.60
2023-10-18T03:58:23.878Z,27.57
2023-10-18T04:00:55.915Z,31.65
2023-10-18T04:03:22.883Z,32.50
2023-10-18T04:05:53.509Z,28.98
2023-10-18T04:08:20.062Z,32.90
2023-10-18T04:10:59.640Z,30.40
2023-10-18T04:13:29.182Z,31.27
2023-10-18T04:16:00.928Z,32.47
2023-10-18T04:18:30.950Z,30.02
2023-10-18T04:21:00.597Z,32.35
2023-10-18T04:23:27.617Z,35.33
2023-10-18T04:26:05.929Z,34.70
2023-10-18T04:28:39.646Z,31.30
2023-10-18T04:31:10.274Z,31.63
2023-10-18T04:33:37.758Z,33.97
2023-10-18T04:36:16.258Z,28.77
2023-10-18T04:38:45.943Z,32.70
2023-10-18T04:41:29.686Z,31.50
2023-10-18T04:44:06.720Z,34.35
2023-10-18T04:46:37.266Z,34.15
2023-10-18T04:49:11.517Z,35.27
2023-10-18T04:51:40.865Z,33.25
2023-10-18T04:54:19.144Z,31.75
2023-10-18T04:56:47.699Z,34.38
2023-10-18T04:59:19.078Z,29.88
2023-10-18T05:01:55.244Z,33.37
2023-10-18T05:04:35.501Z,32.97
2023-10-18T05:07:17.249Z,38.45
2023-10-18T05:09:45.718Z,30.38
2023-10-18T05:12:29.122Z,32.78
2023-10-18T05:14:59.380Z,34.33
2023-10-18T05:17:46.171Z,34.83
2023-10-18T05:20:18.526Z,34.50
2023-10-18T05:22:53.877Z,36.88
2023-10-18T05:25:20.624Z,35.17
2023-10-18T05:28:01.375Z,34.67
2023-10-18T05:30:49.923Z,34.20
2023-10-18T05:33:38.258Z,34.50
2023-10-18T05:36:20.970Z,35.35
2023-10-18T05:38:47.465Z,38.90
2023-10-18T05:41:20.981Z,34.03
2023-10-18T05:43:47.470Z,38.70
2023-10-18T05:46:14.053Z,36.70
2023-10-18T05:48:43.176Z,36.42
2023-10-18T05:54:00.601Z,40.27
2023-10-18T05:56:36.271Z,35.53
2023-10-18T05:59:22.571Z,40.38
2023-10-18T06:01:51.089Z,38.65
2023-10-18T06:04:26.910Z,33.95
2023-10-18T06:07:06.077Z,37.27
2023-10-18T06:09:45.819Z,37.85
2023-10-18T06:12:16.625Z,39.08
2023-10-18T06:14:46.541Z,37.72
2023-10-18T06:17:13.664Z,35.47
2023-10-18T06:19:42.333Z,42.90
2023-10-18T06:22:27.504Z,37.45
2023-10-18T06:24:54.033Z,37.63
2023-10-18T06:27:20.525Z,41.90
2023-10-18T06:29:50.551Z,40.60
2023-10-18T06:32:17.290Z,39.10
2023-10-18T06:34:44.943Z,38.88
2023-10-18T06:37:23.882Z,38.65
2023-10-18T06:39:59.915Z,41.25
2023-10-18T06:42:28.229Z,38.15
2023-10-18T06:44:56.531Z,36.83
2023-10-18T06:47:32.028Z,36.85
2023-10-18T06:50:17.928Z,36.63
2023-10-18T06:52:54.596Z,34.05
2023-10-18T06:55:39.878Z,36.38
2023-10-18T06:58:13.504Z,35.93
2023-10-18T07:00:44.785Z,36.75
2023-10-18T07:03:26.025Z,34.38
2023-10-18T07:05:55.775Z,33.75
2023-10-18T07:08:34.137Z,36.72
2023-10-18T07:11:18.505Z,32.47
2023-10-18T07:13:48.500Z,33.72
2023-10-18T07:16:34.810Z,34.70
2023-10-18T07:19:05.824Z,33.85
2023-10-18T07:21:33.730Z,34.47
2023-10-18T07:24:13.035Z,33.17
2023-10-18T07:26:40.907Z,31.42
2023-10-18T07:29:10.566Z,32.95
2023-10-18T07:31:40.627Z,32.15
2023-10-18T07:34:10.674Z,32.03
2023-10-18T07:36:40.840Z,33.17
2023-10-18T07:39:07.622Z,29.85
2023-10-18T07:41:37.625Z,29.42
2023-10-18T07:44:07.989Z,33.15
2023-10-18T07:46:35.982Z,27.00
2023-10-18T07:49:06.076Z,28.77
2023-10-18T07:51:33.063Z,26.52
2023-10-18T07:54:01.103Z,30.08
2023-10-18T07:56:33.739Z,27.77
2023-10-18T07:59:19.408Z,27.10
2023-10-18T08:01:52.536Z,28.37
2023-10-18T08:04:21.487Z,29.10
2023-10-18T08:06:50.244Z,28.63
2023-10-18T08:09:21.596Z,29.45
2023-10-18T08:11:51.913Z,29.02
2023-10-18T08:14:20.166Z,27.20
2023-10-18T08:16:53.898Z,25.70
2023-10-18T08:19:24.287Z,26.33
2023-10-18T08:22:21.511Z,27.17
2023-10-18T08:24:53.127Z,26.35
2023-10-18T08:27:19.807Z,27.10
2023-10-18T08:29:56.817Z,25.45
2023-10-18T08:32:31.103Z,26.77
2023-10-18T08:35:07.673Z,23.38
2023-10-18T08:37:34.252Z,24.83
2023-10-18T08:40:00.792Z,23.87
2023-10-18T08:42:33.880Z,23.35
2023-10-18T08:45:05.216Z,27.23
2023-10-18T08:50:03.176Z,23.45
2023-10-18T08:52:36.218Z,23.53
2023-10-18T08:55:20.947Z,21.48
2023-10-18T08:57:48.458Z,22.70
2023-10-18T09:00:25.101Z,22.02
2023-10-18T09:02:55.291Z,23.75
2023-10-18T09:05:26.312Z,21.50
2023-10-18T09:07:54.282Z,21.52
2023-10-18T09:10:54.376Z,19.73
2023-10-18T09:13:22.416Z,22.67
2023-10-18T09:16:01.039Z,28.83
2023-10-18T09:18:32.943Z,21.63
2023-10-18T09:21:09.298Z,20.20
2023-10-18T09:23:36.273Z,18.15
2023-10-18T09:26:11.703Z,21.33
2023-10-18T09:28:39.129Z,20.27
2023-10-18T09:31:12.382Z,21.03
2023-10-18T09:33:41.810Z,20.23
2023-10-18T09:36:22.122Z,19.83
2023-10-18T09:38:50.317Z,21.05
2023-10-18T09:41:18.153Z,19.48
2023-10-18T09:43:48.366Z,22.27
2023-10-18T09:46:16.822Z,18.92
2023-10-18T09:48:45.238Z,18.08
2023-10-18T09:51:16.565Z,19.08
2023-10-18T09:53:49.405Z,20.95
2023-10-18T09:56:19.701Z,19.27
2023-10-18T09:58:52.952Z,19.55
2023-10-18T10:01:52.093Z,20.60
2023-10-18T10:04:19.358Z,17.77
2023-10-18T10:06:53.990Z,18.15
2023-10-18T10:09:30.506Z,16.23
2023-10-18T10:11:59.312Z,16.98
2023-10-18T10:14:30.509Z,18.17
2023-10-18T10:17:09.016Z,16.88
2023-10-18T10:19:44.047Z,17.80
2023-10-18T10:22:13.451Z,16.40
2023-10-18T10:24:52.722Z,17.23
2023-10-18T10:27:33.619Z,18.38
2023-10-18T10:30:21.838Z,16.92
2023-10-18T10:33:13.196Z,17.42
2023-10-18T10:35:46.513Z,16.53
2023-10-18T10:38:22.794Z,19.70
2023-10-18T10:40:50.290Z,15.40
2023-10-18T10:43:19.742Z,15.68
2023-10-18T10:45:47.639Z,17.58
2023-10-18T10:48:26.397Z,16.97
2023-10-18T10:51:20.882Z,18.55
2023-10-18T10:53:59.090Z,14.70
2023-10-18T10:56:28.288Z,14.63
2023-10-18T10:59:04.792Z,15.85
2023-10-18T11:01:41.365Z,15.00
2023-10-18T11:04:16.391Z,15.52
2023-10-18T11:06:47.755Z,17.13
2023-10-18T11:09:16.808Z,15.73
2023-10-18T11:11:44.887Z,14.07
2023-10-18T11:14:18.545Z,15.27
2023-10-18T11:16:55.090Z,15.68
2023-10-18T11:19:29.724Z,15.85
2023-10-18T11:21:59.593Z,16.63
2023-10-18T11:24:29.035Z,15.52
2023-10-18T11:26:58.673Z,15.47
2023-10-18T11:29:28.341Z,16.02
2023-10-18T11:32:00.021Z,13.80
2023-10-18T11:34:26.942Z,14.98
2023-10-18T11:36:56.199Z,15.82
2023-10-18T11:39:24.596Z,15.17
2023-10-18T11:41:54.395Z,17.50
2023-10-18T11:44:35.276Z,15.75
2023-10-18T11:47:20.571Z,13.90
2023-10-18T11:49:54.236Z,12.98
2023-10-18T11:52:26.716Z,13.87
2023-10-18T11:55:10.078Z,12.43
2023-10-18T11:57:41.109Z,13.38
2023-10-18T12:00:25.979Z,12.68
2023-10-18T12:03:07.018Z,12.63
2023-10-18T12:05:34.029Z,12.53
2023-10-18T12:08:07.092Z,13.85
2023-10-18T12:10:37.035Z,12.25
2023-10-18T12:13:08.136Z,11.45
2023-10-18T12:15:35.785Z,14.32
2023-10-18T12:18:05.706Z,13.27
2023-10-18T12:20:36.508Z,12.50
2023-10-18T12:23:19.951Z,12.13
2023-10-18T12:25:47.358Z,13.90
2023-10-18T12:28:14.644Z,13.65
2023-10-18T12:30:45.597Z,13.57
2023-10-18T12:33:44.682Z,13.35
2023-10-18T12:36:23.103Z,15.43
2023-10-18T12:38:50.417Z,12.68
2023-10-18T12:41:16.877Z,12.95
2023-10-18T12:43:46.985Z,12.70
2023-10-18T12:46:22.895Z,14.48
2023-10-18T12:48:57.799Z,15.75
2023-10-18T12:51:32.186Z,13.70
2023-10-18T12:53:59.110Z,14.63
2023-10-18T12:56:28.421Z,14.80
2023-10-18T12:59:17.416Z,16.33
2023-10-18T13:01:47.361Z,12.75
2023-10-18T13:04:20.055Z,14.05
2023-10-18T13:06:47.469Z,13.85
2023-10-18T13:09:15.819Z,16.70
2023-10-18T13:11:52.937Z,15.68
2023-10-18T13:14:35.297Z,14.25
2023-10-18T13:17:12.005Z,13.68
2023-10-18T13:19:45.305Z,14.07
2023-10-18T13:22:21.113Z,12.80
2023-10-18T13:24:47.636Z,13.32
2023-10-18T13:27:18.592Z,15.07
2023-10-18T13:30:01.665Z,12.43
2023-10-18T13:32:29.974Z,13.52
2023-10-18T13:34:56.728Z,13.40
2023-10-18T13:37:25.119Z,11.90
2023-10-18T13:39:53.167Z,14.93
2023-10-18T13:42:20.551Z,13.15
2023-10-18T13:44:47.506Z,12.98
2023-10-18T13:47:14.364Z,12.20
2023-10-18T13:49:41.767Z,12.35
2023-10-18T13:52:08.745Z,12.05
2023-10-18T13:54:35.743Z,11.68
2023-10-18T13:57:02.415Z,13.73
2023-10-18T13:59:30.734Z,12.43
2023-10-18T14:01:57.907Z,12.82
2023-10-18T14:04:29.987Z,12.98
2023-10-18T14:06:59.327Z,11.18
2023-10-18T14:09:26.513Z,14.80
2023-10-18T14:11:53.401Z,12.37
2023-10-18T14:14:21.010Z,11.75
2023-10-18T14:16:47.881Z,14.90
2023-10-18T14:19:19.817Z,13.15
2023-10-18T14:21:49.408Z,13.18
2023-10-18T14:24:18.376Z,12.93
2023-10-18T14:26:45.222Z,12.55
2023-10-18T14:29:13.084Z,13.75
2023-10-18T14:31:40.410Z,13.65
2023-10-18T14:34:07.058Z,13.55
2023-10-18T14:36:34.160Z,16.43
2023-10-18T14:39:01.504Z,12.43
2023-10-18T14:41:33.144Z,12.13
2023-10-18T14:44:01.159Z,12.60
2023-10-18T14:46:31.043Z,11.05
2023-10-18T14:49:00.105Z,13.00
2023-10-18T14:51:27.721Z,11.02
2023-10-18T14:53:54.329Z,12.77
2023-10-18T14:56:23.539Z,14.00
2023-10-18T14:58:52.992Z,12.18
2023-10-18T15:01:19.864Z,11.13
2023-10-18T15:03:48.054Z,12.60
2023-10-18T15:06:18.368Z,12.85
2023-10-18T15:08:45.987Z,12.98
2023-10-18T15:11:20.217Z,12.02
2023-10-18T15:13:49.439Z,13.23
2023-10-18T15:16:17.990Z,12.13
2023-10-18T15:18:47.855Z,13.02
2023-10-18T15:21:16.368Z,12.48
2023-10-18T15:23:44.939Z,11.32
2023-10-18T15:26:11.862Z,12.73
2023-10-18T15:28:40.459Z,11.95
2023-10-18T15:31:15.292Z,13.80
2023-10-18T15:33:44.118Z,15.75
2023-10-18T15:36:19.428Z,11.48
2023-10-18T15:38:49.882Z,13.37
2023-10-18T15:41:23.785Z,12.85
2023-10-18T15:43:56.911Z,11.75
2023-10-18T15:46:34.234Z,11.88
2023-10-18T15:49:01.310Z,13.07
2023-10-18T15:51:29.755Z,13.67
2023-10-18T15:54:00.345Z,13.73
2023-10-18T15:56:28.956Z,12.75
2023-10-18T15:58:56.769Z,12.50
2023-10-18T16:01:24.374Z,11.98
2023-10-18T16:03:51.904Z,12.67
2023-10-18T16:06:19.999Z,11.85
2023-10-18T16:08:48.152Z,12.00
2023-10-18T16:11:15.726Z,13.88
2023-10-18T16:13:42.429Z,11.48
2023-10-18T16:16:12.437Z,12.03
2023-10-18T16:18:42.006Z,12.20
2023-10-18T16:21:11.090Z,12.48
2023-10-18T16:23:42.728Z,13.02
2023-10-18T16:26:10.890Z,12.52
2023-10-18T16:28:38.782Z,12.63
2023-10-18T16:31:06.714Z,13.80
2023-10-18T16:33:33.724Z,12.02
2023-10-18T16:36:02.603Z,13.18
2023-10-18T16:38:30.876Z,13.55
2023-10-18T16:41:01.990Z,12.37
2023-10-18T16:43:28.480Z,12.43
2023-10-18T16:45:54.947Z,15.00
2023-10-18T16:48:21.427Z,14.00
2023-10-18T16:50:49.651Z,12.98
2023-10-18T16:53:16.289Z,12.63
2023-10-18T16:55:42.708Z,13.32
2023-10-18T16:58:09.436Z,12.60
2023-10-18T17:00:35.856Z,14.07
2023-10-18T17:03:02.422Z,14.55
2023-10-18T17:05:30.177Z,11.43
2023-10-18T17:07:57.449Z,13.27
2023-10-18T17:10:23.874Z,13.77
2023-10-18T17:12:51.251Z,11.75
2023-10-18T17:15:17.824Z,13.10
2023-10-18T17:17:44.609Z,12.10
2023-10-18T17:20:17.688Z,11.85
2023-10-18T17:22:47.874Z,11.48
2023-10-18T17:25:18.112Z,12.38
2023-10-18T17:27:46.710Z,13.82
2023-10-18T17:30:14.532Z,12.47
2023-10-18T17:32:42.281Z,11.35
2023-10-18T17:35:13.251Z,12.73
2023-10-18T17:37:47.982Z,13.23
2023-10-18T17:40:17.950Z,14.43
2023-10-18T17:42:46.055Z,13.80
2023-10-18T17:45:15.317Z,11.93
2023-10-18T17:47:43.810Z,13.68
2023-10-18T17:50:12.790Z,12.30
2023-10-18T17:52:47.140Z,13.93
2023-10-18T17:55:15.961Z,12.57
2023-10-18T17:57:46.383Z,12.05
2023-10-18T18:00:26.785Z,12.10
2023-10-18T18:03:02.157Z,12.23
2023-10-18T18:05:34.031Z,14.60
2023-10-18T18:08:01.974Z,13.40
2023-10-18T18:10:29.411Z,12.25
2023-10-18T18:12:58.892Z,10.73
2023-10-18T18:15:25.927Z,12.43
2023-10-18T18:17:52.805Z,14.40
2023-10-18T18:20:21.795Z,11.27
2023-10-18T18:22:50.305Z,13.40
2023-10-18T18:25:17.049Z,14.40
2023-10-18T18:27:44.728Z,12.38
2023-10-18T18:30:12.502Z,14.07
2023-10-18T18:32:40.485Z,12.37
2023-10-18T18:35:10.838Z,12.18
2023-10-18T18:37:40.877Z,12.98
2023-10-18T18:40:10.769Z,12.80
2023-10-18T18:42:38.758Z,13.18
2023-10-18T18:45:10.035Z,12.60
2023-10-18T18:47:41.214Z,12.02
2023-10-18T18:50:10.318Z,12.00
2023-10-18T18:52:41.711Z,11.88
2023-10-18T18:55:15.251Z,12.90
2023-10-18T18:57:44.623Z,13.13
2023-10-18T19:00:21.319Z,12.38
2023-10-18T19:02:57.104Z,13.60
2023-10-18T19:05:24.782Z,12.38
2023-10-18T19:07:53.053Z,14.63
2023-10-18T19:10:21.088Z,12.30
2023-10-18T19:12:49.535Z,12.30
2023-10-18T19:15:24.856Z,13.50
2023-10-18T19:17:51.882Z,12.48
2023-10-18T19:20:19.712Z,14.25
2023-10-18T19:22:48.446Z,13.33
2023-10-18T19:25:17.679Z,13.20
2023-10-18T19:27:44.819Z,13.05
2023-10-18T19:30:12.833Z,11.60
2023-10-18T19:32:39.800Z,11.02
2023-10-18T19:35:10.947Z,13.33
2023-10-18T19:37:38.510Z,14.65
2023-10-18T19:40:08.505Z,13.23
2023-10-18T19:42:35.648Z,12.25
2023-10-18T19:45:02.215Z,13.73
2023-10-18T19:47:29.191Z,12.17
2023-10-18T19:49:55.847Z,12.75
2023-10-18T19:52:23.156Z,12.88
2023-10-18T19:54:49.788Z,14.23
2023-10-18T19:57:16.403Z,12.38
2023-10-18T19:59:42.849Z,11.97
2023-10-18T20:02:11.480Z,13.45
2023-10-18T20:04:38.136Z,15.10
2023-10-18T20:07:04.601Z,13.48
2023-10-18T20:09:34.491Z,13.93
2023-10-18T20:12:01.471Z,13.03
2023-10-18T20:14:28.513Z,13.00
2023-10-18T20:16:54.992Z,13.43
2023-10-18T20:19:21.514Z,12.65
2023-10-18T20:21:48.056Z,13.07
2023-10-18T20:24:14.558Z,12.40
2023-10-18T20:26:41.054Z,13.25
2023-10-18T20:29:09.505Z,13.15
2023-10-18T20:31:36.083Z,14.80
2023-10-18T20:34:02.583Z,12.98
2023-10-18T20:36:29.087Z,12.60
2023-10-18T20:38:55.751Z,13.63
2023-10-18T20:41:22.199Z,13.30
2023-10-18T20:43:48.671Z,12.13
2023-10-18T20:46:17.801Z,13.30
2023-10-18T20:48:46.610Z,15.27
2023-10-18T20:51:13.962Z,16.73
2023-10-18T20:53:41.859Z,14.35
2023-10-18T20:56:09.236Z,14.00
2023-10-18T20:58:36.309Z,15.68
2023-10-18T21:01:09.234Z,12.53
2023-10-18T21:03:36.009Z,14.20
2023-10-18T21:06:14.581Z,15.02
2023-10-18T21:08:43.165Z,13.65
2023-10-18T21:11:14.026Z,14.15
2023-10-18T21:13:41.702Z,13.80
2023-10-18T21:16:10.179Z,12.40
2023-10-18T21:18:37.040Z,12.93
2023-10-18T21:21:06.516Z,14.95
2023-10-18T21:23:34.851Z,15.45
2023-10-18T21:26:04.867Z,13.13
2023-10-18T21:28:32.029Z,14.93
2023-10-18T21:31:05.867Z,14.23
2023-10-18T21:33:33.406Z,16.25
2023-10-18T21:36:11.926Z,17.13
2023-10-18T21:38:40.630Z,15.40
2023-10-18T21:41:12.322Z,15.63
2023-10-18T21:43:38.818Z,16.63
2023-10-18T21:46:06.477Z,14.27
2023-10-18T21:48:37.350Z,16.60
2023-10-18T21:51:08.473Z,14.77
2023-10-18T21:53:34.917Z,14.50
2023-10-18T21:56:02.089Z,16.77
2023-10-18T21:58:33.565Z,17.40
2023-10-18T22:01:06.972Z,16.50
2023-10-18T22:03:36.149Z,17.10
2023-10-18T22:06:04.284Z,15.95
2023-10-18T22:08:31.978Z,15.23
2023-10-18T22:11:02.193Z,15.60
2023-10-18T22:13:32.382Z,16.27
2023-10-18T22:16:03.290Z,16.20
2023-10-18T22:18:38.680Z,18.10
2023-10-18T22:21:07.299Z,16.38
2023-10-18T22:23:37.917Z,18.50
2023-10-18T22:26:14.928Z,18.08
2023-10-18T22:28:45.121Z,17.80
2023-10-18T22:31:11.766Z,19.60
2023-10-18T22:33:38.630Z,17.70
2023-10-18T22:36:09.886Z,18.67
2023-10-18T22:38:42.473Z,18.60
2023-10-18T22:41:11.987Z,20.67
2023-10-18T22:43:42.500Z,21.20
2023-10-18T22:46:17.637Z,19.58
2023-10-18T22:48:45.567Z,21.13
2023-10-18T22:51:13.150Z,19.52
2023-10-18T22:53:46.386Z,20.53
2023-10-18T22:56:16.946Z,20.55
2023-10-18T22:58:45.961Z,21.15
2023-10-18T23:01:17.456Z,22.17
2023-10-18T23:03:44.419Z,23.42
2023-10-18T23:06:11.803Z,21.83
2023-10-18T23:08:38.332Z,23.02
2023-10-18T23:11:20.047Z,22.85
2023-10-18T23:13:49.420Z,21.05
2023-10-18T23:16:37.647Z,22.75
2023-10-18T23:19:11.361Z,24.60
2023-10-18T23:21:46.847Z,21.33
2023-10-18T23:24:19.175Z,24.17
2023-10-18T23:27:04.352Z,21.90
2023-10-18T23:29:39.601Z,24.40
2023-10-18T23:32:27.646Z,27.03
2023-10-18T23:34:55.191Z,24.48
2023-10-18T23:37:29.566Z,25.85
2023-10-18T23:39:56.429Z,25.33
2023-10-18T23:42:34.762Z,24.52
2023-10-18T23:45:13.805Z,26.60
2023-10-18T23:47:40.718Z,26.35
2023-10-18T23:50:30.298Z,26.80
2023-10-18T23:53:19.543Z,27.55
2023-10-18T23:55:55.480Z,26.90
2023-10-18T23:58:30.435Z,27.13
